sensor_id;sensor_type;location;lat;lon;timestamp;temperature;humidity
6186;DHT22;3126;52.738;8.316;2023-05-29T00:04:23;9.70;98.80
6186;DHT22;3126;52.738;8.316;2023-05-29T00:14:25;9.70;99.30
6186;DHT22;3126;52.738;8.316;2023-05-29T00:19:26;9.60;99.90
6186;DHT22;3126;52.738;8.316;2023-05-29T00:24:27;9.70;99.90
6186;DHT22;3126;52.738;8.316;2023-05-29T00:29:28;9.70;99.90
6186;DHT22;3126;52.738;8.316;2023-05-29T00:34:28;9.70;99.90
6186;DHT22;3126;52.738;8.316;2023-05-29T01:29:58;9.90;99.30
6186;DHT22;3126;52.738;8.316;2023-05-29T01:34:59;9.20;99.90
6186;DHT22;3126;52.738;8.316;2023-05-29T01:40:00;9.20;99.90
6186;DHT22;3126;52.738;8.316;2023-05-29T01:45:01;9.20;99.90
6186;DHT22;3126;52.738;8.316;2023-05-29T01:50:04;9.20;99.90
6186;DHT22;3126;52.738;8.316;2023-05-29T01:55:05;9.30;99.90
6186;DHT22;3126;52.738;8.316;2023-05-29T02:00:06;9.30;99.90
6186;DHT22;3126;52.738;8.316;2023-05-29T02:05:09;9.30;99.90
6186;DHT22;3126;52.738;8.316;2023-05-29T02:10:10;9.40;99.90
6186;DHT22;3126;52.738;8.316;2023-05-29T02:15:10;9.40;99.70
6186;DHT22;3126;52.738;8.316;2023-05-29T02:20:11;9.40;99.40
6186;DHT22;3126;52.738;8.316;2023-05-29T02:25:12;9.50;99.30
6186;DHT22;3126;52.738;8.316;2023-05-29T02:30:12;9.50;99.20
6186;DHT22;3126;52.738;8.316;2023-05-29T02:35:13;9.50;98.30
6186;DHT22;3126;52.738;8.316;2023-05-29T02:40:15;9.50;98.20
6186;DHT22;3126;52.738;8.316;2023-05-29T02:45:17;9.50;97.70
6186;DHT22;3126;52.738;8.316;2023-05-29T02:50:18;9.50;97.70
6186;DHT22;3126;52.738;8.316;2023-05-29T02:55:18;9.50;97.50
6186;DHT22;3126;52.738;8.316;2023-05-29T03:00:19;9.50;97.10
6186;DHT22;3126;52.738;8.316;2023-05-29T03:05:19;9.40;96.80
6186;DHT22;3126;52.738;8.316;2023-05-29T03:10:20;9.50;97.30
6186;DHT22;3126;52.738;8.316;2023-05-29T03:15:20;9.40;96.70
6186;DHT22;3126;52.738;8.316;2023-05-29T03:20:21;9.50;96.50
6186;DHT22;3126;52.738;8.316;2023-05-29T03:25:22;9.40;96.40
6186;DHT22;3126;52.738;8.316;2023-05-29T03:30:23;9.50;96.40
6186;DHT22;3126;52.738;8.316;2023-05-29T03:35:23;9.40;96.10
6186;DHT22;3126;52.738;8.316;2023-05-29T03:40:24;9.40;96.10
6186;DHT22;3126;52.738;8.316;2023-05-29T03:45:24;9.40;96.00
6186;DHT22;3126;52.738;8.316;2023-05-29T03:50:26;9.40;95.70
6186;DHT22;3126;52.738;8.316;2023-05-29T03:55:26;9.50;95.70
6186;DHT22;3126;52.738;8.316;2023-05-29T04:00:28;9.50;95.80
6186;DHT22;3126;52.738;8.316;2023-05-29T04:05:28;9.50;95.40
6186;DHT22;3126;52.738;8.316;2023-05-29T04:10:29;9.60;95.00
6186;DHT22;3126;52.738;8.316;2023-05-29T04:15:29;9.50;95.00
6186;DHT22;3126;52.738;8.316;2023-05-29T04:20:30;9.60;94.80
6186;DHT22;3126;52.738;8.316;2023-05-29T04:25:31;9.70;94.20
6186;DHT22;3126;52.738;8.316;2023-05-29T04:30:32;9.80;94.10
6186;DHT22;3126;52.738;8.316;2023-05-29T04:35:34;9.90;94.00
6186;DHT22;3126;52.738;8.316;2023-05-29T04:40:35;10.00;93.20
6186;DHT22;3126;52.738;8.316;2023-05-29T04:45:36;10.10;92.50
6186;DHT22;3126;52.738;8.316;2023-05-29T04:50:37;10.10;91.70
6186;DHT22;3126;52.738;8.316;2023-05-29T04:55:39;10.10;90.80
6186;DHT22;3126;52.738;8.316;2023-05-29T05:05:40;10.20;91.00
6186;DHT22;3126;52.738;8.316;2023-05-29T05:10:41;10.40;90.30
6186;DHT22;3126;52.738;8.316;2023-05-29T05:15:42;10.60;89.10
6186;DHT22;3126;52.738;8.316;2023-05-29T05:45:47;10.70;88.30
6186;DHT22;3126;52.738;8.316;2023-05-29T05:50:48;11.70;84.80
6186;DHT22;3126;52.738;8.316;2023-05-29T06:00:52;12.50;81.90
6186;DHT22;3126;52.738;8.316;2023-05-29T06:20:56;12.80;78.80
6186;DHT22;3126;52.738;8.316;2023-05-29T06:25:57;13.50;75.60
6186;DHT22;3126;52.738;8.316;2023-05-29T06:30:57;13.70;73.70
6186;DHT22;3126;52.738;8.316;2023-05-29T06:35:58;13.90;72.20
6186;DHT22;3126;52.738;8.316;2023-05-29T06:40:59;14.30;71.70
6186;DHT22;3126;52.738;8.316;2023-05-29T06:45:59;15.20;69.30
6186;DHT22;3126;52.738;8.316;2023-05-29T06:51:03;15.80;66.60
6186;DHT22;3126;52.738;8.316;2023-05-29T07:06:10;15.90;65.30
6186;DHT22;3126;52.738;8.316;2023-05-29T07:11:11;16.50;62.50
6186;DHT22;3126;52.738;8.316;2023-05-29T07:16:12;16.40;63.20
6186;DHT22;3126;52.738;8.316;2023-05-29T07:21:12;16.40;64.20
6186;DHT22;3126;52.738;8.316;2023-05-29T07:36:16;16.50;64.00
6186;DHT22;3126;52.738;8.316;2023-05-29T07:41:17;17.40;60.20
6186;DHT22;3126;52.738;8.316;2023-05-29T07:46:18;17.80;58.80
6186;DHT22;3126;52.738;8.316;2023-05-29T07:51:20;17.90;59.50
6186;DHT22;3126;52.738;8.316;2023-05-29T07:56:20;17.50;59.80
6186;DHT22;3126;52.738;8.316;2023-05-29T08:01:21;17.60;59.10
6186;DHT22;3126;52.738;8.316;2023-05-29T08:06:22;17.60;58.40
6186;DHT22;3126;52.738;8.316;2023-05-29T08:11:22;17.60;58.90
6186;DHT22;3126;52.738;8.316;2023-05-29T08:16:23;17.80;58.10
6186;DHT22;3126;52.738;8.316;2023-05-29T08:21:24;18.00;56.60
6186;DHT22;3126;52.738;8.316;2023-05-29T08:26:26;17.90;56.50
6186;DHT22;3126;52.738;8.316;2023-05-29T08:31:27;18.00;56.10
6186;DHT22;3126;52.738;8.316;2023-05-29T08:36:27;18.30;55.50
6186;DHT22;3126;52.738;8.316;2023-05-29T08:47:03;19.10;56.50
6186;DHT22;3126;52.738;8.316;2023-05-29T08:52:14;19.50;53.50
6186;DHT22;3126;52.738;8.316;2023-05-29T08:57:15;18.90;52.20
6186;DHT22;3126;52.738;8.316;2023-05-29T09:02:16;18.60;52.80
6186;DHT22;3126;52.738;8.316;2023-05-29T09:07:17;18.90;52.70
6186;DHT22;3126;52.738;8.316;2023-05-29T09:12:18;19.20;53.10
6186;DHT22;3126;52.738;8.316;2023-05-29T09:17:19;19.70;52.90
6186;DHT22;3126;52.738;8.316;2023-05-29T09:22:20;20.30;48.60
6186;DHT22;3126;52.738;8.316;2023-05-29T09:27:21;20.00;51.60
6186;DHT22;3126;52.738;8.316;2023-05-29T09:32:22;20.50;50.90
6186;DHT22;3126;52.738;8.316;2023-05-29T09:37:23;20.90;48.30
6186;DHT22;3126;52.738;8.316;2023-05-29T09:42:24;21.20;47.00
6186;DHT22;3126;52.738;8.316;2023-05-29T09:47:25;21.50;47.50
6186;DHT22;3126;52.738;8.316;2023-05-29T09:52:29;21.70;45.50
6186;DHT22;3126;52.738;8.316;2023-05-29T09:57:30;21.80;46.90
6186;DHT22;3126;52.738;8.316;2023-05-29T10:02:31;21.60;47.80
6186;DHT22;3126;52.738;8.316;2023-05-29T10:07:34;22.00;45.70
6186;DHT22;3126;52.738;8.316;2023-05-29T10:12:37;22.00;44.40
6186;DHT22;3126;52.738;8.316;2023-05-29T10:22:54;21.80;43.00
6186;DHT22;3126;52.738;8.316;2023-05-29T10:27:57;21.50;42.00
6186;DHT22;3126;52.738;8.316;2023-05-29T10:38:36;22.00;45.00
6186;DHT22;3126;52.738;8.316;2023-05-29T10:43:36;22.10;43.70
6186;DHT22;3126;52.738;8.316;2023-05-29T10:48:39;22.20;41.80
6186;DHT22;3126;52.738;8.316;2023-05-29T10:53:41;21.90;41.30
6186;DHT22;3126;52.738;8.316;2023-05-29T10:58:42;22.10;42.10
6186;DHT22;3126;52.738;8.316;2023-05-29T11:03:42;22.20;42.80
6186;DHT22;3126;52.738;8.316;2023-05-29T11:08:47;22.20;42.70
6186;DHT22;3126;52.738;8.316;2023-05-29T11:13:54;22.20;42.70
6186;DHT22;3126;52.738;8.316;2023-05-29T11:18:56;22.50;40.50
6186;DHT22;3126;52.738;8.316;2023-05-29T11:23:58;22.40;37.70
6186;DHT22;3126;52.738;8.316;2023-05-29T11:29:05;22.30;40.90
6186;DHT22;3126;52.738;8.316;2023-05-29T11:34:09;22.90;40.80
6186;DHT22;3126;52.738;8.316;2023-05-29T11:39:13;23.40;38.50
6186;DHT22;3126;52.738;8.316;2023-05-29T11:44:14;23.40;36.90
6186;DHT22;3126;52.738;8.316;2023-05-29T11:49:27;23.30;38.80
6186;DHT22;3126;52.738;8.316;2023-05-29T11:54:28;22.90;40.90
6186;DHT22;3126;52.738;8.316;2023-05-29T11:59:29;22.50;39.20
6186;DHT22;3126;52.738;8.316;2023-05-29T12:04:30;22.70;40.20
6186;DHT22;3126;52.738;8.316;2023-05-29T12:09:30;22.40;41.20
6186;DHT22;3126;52.738;8.316;2023-05-29T12:14:33;22.70;41.10
6186;DHT22;3126;52.738;8.316;2023-05-29T12:19:33;23.00;39.70
6186;DHT22;3126;52.738;8.316;2023-05-29T12:24:35;22.50;42.10
6186;DHT22;3126;52.738;8.316;2023-05-29T12:29:35;22.60;40.20
6186;DHT22;3126;52.738;8.316;2023-05-29T12:34:36;22.30;39.00
6186;DHT22;3126;52.738;8.316;2023-05-29T12:39:37;22.00;41.60
6186;DHT22;3126;52.738;8.316;2023-05-29T12:44:37;22.50;39.20
6186;DHT22;3126;52.738;8.316;2023-05-29T12:49:38;22.20;39.60
6186;DHT22;3126;52.738;8.316;2023-05-29T12:54:39;22.40;40.10
6186;DHT22;3126;52.738;8.316;2023-05-29T12:59:39;22.40;42.00
6186;DHT22;3126;52.738;8.316;2023-05-29T13:04:40;22.40;41.10
6186;DHT22;3126;52.738;8.316;2023-05-29T13:09:41;22.30;39.40
6186;DHT22;3126;52.738;8.316;2023-05-29T13:14:41;21.90;38.90
6186;DHT22;3126;52.738;8.316;2023-05-29T13:19:42;21.60;41.70
6186;DHT22;3126;52.738;8.316;2023-05-29T13:24:43;21.70;40.80
6186;DHT22;3126;52.738;8.316;2023-05-29T13:29:43;21.90;39.50
6186;DHT22;3126;52.738;8.316;2023-05-29T13:34:44;21.90;40.50
6186;DHT22;3126;52.738;8.316;2023-05-29T13:39:44;22.00;38.70
6186;DHT22;3126;52.738;8.316;2023-05-29T13:44:46;21.90;39.10
6186;DHT22;3126;52.738;8.316;2023-05-29T13:49:46;21.70;38.50
6186;DHT22;3126;52.738;8.316;2023-05-29T13:54:47;21.60;38.30
6186;DHT22;3126;52.738;8.316;2023-05-29T13:59:47;21.40;38.40
6186;DHT22;3126;52.738;8.316;2023-05-29T14:04:48;21.30;38.40
6186;DHT22;3126;52.738;8.316;2023-05-29T14:09:48;21.30;38.10
6186;DHT22;3126;52.738;8.316;2023-05-29T14:14:49;21.40;37.50
6186;DHT22;3126;52.738;8.316;2023-05-29T14:19:50;21.20;39.10
6186;DHT22;3126;52.738;8.316;2023-05-29T14:24:51;21.10;36.90
6186;DHT22;3126;52.738;8.316;2023-05-29T14:29:51;20.80;36.20
6186;DHT22;3126;52.738;8.316;2023-05-29T14:34:52;20.80;38.20
6186;DHT22;3126;52.738;8.316;2023-05-29T14:39:52;20.70;37.00
6186;DHT22;3126;52.738;8.316;2023-05-29T14:44:53;20.70;37.40
6186;DHT22;3126;52.738;8.316;2023-05-29T14:49:54;20.50;36.80
6186;DHT22;3126;52.738;8.316;2023-05-29T14:54:54;20.40;35.90
6186;DHT22;3126;52.738;8.316;2023-05-29T14:59:55;20.40;33.20
6186;DHT22;3126;52.738;8.316;2023-05-29T15:04:55;20.10;34.30
6186;DHT22;3126;52.738;8.316;2023-05-29T15:09:56;20.10;35.60
6186;DHT22;3126;52.738;8.316;2023-05-29T15:14:57;20.10;32.60
6186;DHT22;3126;52.738;8.316;2023-05-29T15:19:57;20.10;33.10
6186;DHT22;3126;52.738;8.316;2023-05-29T15:24:58;19.80;35.70
6186;DHT22;3126;52.738;8.316;2023-05-29T15:30:17;19.70;37.00
6186;DHT22;3126;52.738;8.316;2023-05-29T15:35:19;19.80;36.40
6186;DHT22;3126;52.738;8.316;2023-05-29T15:40:20;19.70;37.10
6186;DHT22;3126;52.738;8.316;2023-05-29T15:45:20;19.60;36.80
6186;DHT22;3126;52.738;8.316;2023-05-29T15:50:21;19.50;34.60
6186;DHT22;3126;52.738;8.316;2023-05-29T15:55:22;19.20;35.20
6186;DHT22;3126;52.738;8.316;2023-05-29T16:00:23;19.00;37.30
6186;DHT22;3126;52.738;8.316;2023-05-29T16:05:23;18.80;35.80
6186;DHT22;3126;52.738;8.316;2023-05-29T16:10:24;18.80;36.90
6186;DHT22;3126;52.738;8.316;2023-05-29T16:15:25;18.40;38.90
6186;DHT22;3126;52.738;8.316;2023-05-29T16:20:26;18.20;36.90
6186;DHT22;3126;52.738;8.316;2023-05-29T16:25:27;18.20;38.40
6186;DHT22;3126;52.738;8.316;2023-05-29T16:30:27;18.20;38.80
6186;DHT22;3126;52.738;8.316;2023-05-29T16:35:28;18.20;40.50
6186;DHT22;3126;52.738;8.316;2023-05-29T16:40:28;18.00;40.60
6186;DHT22;3126;52.738;8.316;2023-05-29T16:45:29;17.90;40.10
6186;DHT22;3126;52.738;8.316;2023-05-29T16:50:29;17.50;36.90
6186;DHT22;3126;52.738;8.316;2023-05-29T16:55:30;17.30;38.70
6186;DHT22;3126;52.738;8.316;2023-05-29T17:00:30;17.20;37.60
6186;DHT22;3126;52.738;8.316;2023-05-29T17:05:32;17.20;36.30
6186;DHT22;3126;52.738;8.316;2023-05-29T17:10:32;16.90;36.80
6186;DHT22;3126;52.738;8.316;2023-05-29T17:15:36;16.90;37.90
6186;DHT22;3126;52.738;8.316;2023-05-29T17:20:37;16.70;39.40
6186;DHT22;3126;52.738;8.316;2023-05-29T17:25:37;16.50;37.70
6186;DHT22;3126;52.738;8.316;2023-05-29T17:30:38;16.40;37.10
6186;DHT22;3126;52.738;8.316;2023-05-29T17:35:38;16.20;39.00
6186;DHT22;3126;52.738;8.316;2023-05-29T17:40:39;15.80;39.60
6186;DHT22;3126;52.738;8.316;2023-05-29T17:45:39;15.50;37.80
6186;DHT22;3126;52.738;8.316;2023-05-29T17:50:40;15.10;38.50
6186;DHT22;3126;52.738;8.316;2023-05-29T17:55:40;14.90;38.90
6186;DHT22;3126;52.738;8.316;2023-05-29T18:00:41;14.70;41.10
6186;DHT22;3126;52.738;8.316;2023-05-29T18:05:42;14.60;43.50
6186;DHT22;3126;52.738;8.316;2023-05-29T18:10:43;14.50;44.50
6186;DHT22;3126;52.738;8.316;2023-05-29T18:15:44;14.50;46.70
6186;DHT22;3126;52.738;8.316;2023-05-29T18:20:45;14.30;47.20
6186;DHT22;3126;52.738;8.316;2023-05-29T18:25:45;14.20;51.00
6186;DHT22;3126;52.738;8.316;2023-05-29T18:30:46;14.00;52.10
6186;DHT22;3126;52.738;8.316;2023-05-29T18:45:49;13.90;54.10
6186;DHT22;3126;52.738;8.316;2023-05-29T19:05:52;13.50;52.90
6186;DHT22;3126;52.738;8.316;2023-05-29T19:10:53;12.90;57.00
6186;DHT22;3126;52.738;8.316;2023-05-29T19:20:55;12.70;58.70
6186;DHT22;3126;52.738;8.316;2023-05-29T19:25:55;12.40;63.60
6186;DHT22;3126;52.738;8.316;2023-05-29T19:30:56;12.30;65.00
6186;DHT22;3126;52.738;8.316;2023-05-29T19:35:57;12.30;66.70
6186;DHT22;3126;52.738;8.316;2023-05-29T19:40:57;12.20;68.00
6186;DHT22;3126;52.738;8.316;2023-05-29T19:45:58;12.10;69.70
6186;DHT22;3126;52.738;8.316;2023-05-29T19:50:58;11.90;71.50
6186;DHT22;3126;52.738;8.316;2023-05-29T19:55:59;11.80;73.20
6186;DHT22;3126;52.738;8.316;2023-05-29T20:11:02;11.70;74.50
6186;DHT22;3126;52.738;8.316;2023-05-29T20:16:03;11.30;78.20
6186;DHT22;3126;52.738;8.316;2023-05-29T20:26:04;11.10;79.80
6186;DHT22;3126;52.738;8.316;2023-05-29T20:31:05;11.00;80.40
6186;DHT22;3126;52.738;8.316;2023-05-29T20:36:06;10.90;81.50
6186;DHT22;3126;52.738;8.316;2023-05-29T20:41:07;10.80;82.10
6186;DHT22;3126;52.738;8.316;2023-05-29T20:46:09;10.70;82.50
6186;DHT22;3126;52.738;8.316;2023-05-29T20:51:09;10.70;82.20
6186;DHT22;3126;52.738;8.316;2023-05-29T20:56:10;10.60;83.00
6186;DHT22;3126;52.738;8.316;2023-05-29T21:01:11;10.60;83.30
6186;DHT22;3126;52.738;8.316;2023-05-29T21:06:12;10.50;83.70
6186;DHT22;3126;52.738;8.316;2023-05-29T21:11:13;10.40;83.60
6186;DHT22;3126;52.738;8.316;2023-05-29T21:16:13;10.40;83.80
6186;DHT22;3126;52.738;8.316;2023-05-29T21:21:14;10.30;84.70
6186;DHT22;3126;52.738;8.316;2023-05-29T21:26:15;10.20;85.50
6186;DHT22;3126;52.738;8.316;2023-05-29T21:31:15;10.20;85.60
6186;DHT22;3126;52.738;8.316;2023-05-29T21:36:16;10.10;85.70
6186;DHT22;3126;52.738;8.316;2023-05-29T21:41:17;10.10;86.70
6186;DHT22;3126;52.738;8.316;2023-05-29T21:46:17;10.00;86.80
6186;DHT22;3126;52.738;8.316;2023-05-29T21:51:18;9.90;87.00
6186;DHT22;3126;52.738;8.316;2023-05-29T21:56:19;9.90;87.50
6186;DHT22;3126;52.738;8.316;2023-05-29T22:01:19;9.70;88.10
6186;DHT22;3126;52.738;8.316;2023-05-29T22:06:20;9.70;88.80
6186;DHT22;3126;52.738;8.316;2023-05-29T22:11:21;9.60;89.80
6186;DHT22;3126;52.738;8.316;2023-05-29T22:16:22;9.60;89.90
6186;DHT22;3126;52.738;8.316;2023-05-29T22:21:23;9.50;90.60
6186;DHT22;3126;52.738;8.316;2023-05-29T22:26:25;9.40;91.20
6186;DHT22;3126;52.738;8.316;2023-05-29T22:31:25;9.40;90.80
6186;DHT22;3126;52.738;8.316;2023-05-29T22:36:27;9.40;91.60
6186;DHT22;3126;52.738;8.316;2023-05-29T22:41:28;9.30;92.20
6186;DHT22;3126;52.738;8.316;2023-05-29T22:46:28;9.20;92.60
6186;DHT22;3126;52.738;8.316;2023-05-29T22:51:29;9.10;93.20
6186;DHT22;3126;52.738;8.316;2023-05-29T22:56:33;9.10;93.40
6186;DHT22;3126;52.738;8.316;2023-05-29T23:01:34;9.00;94.00
6186;DHT22;3126;52.738;8.316;2023-05-29T23:06:34;8.90;94.60
6186;DHT22;3126;52.738;8.316;2023-05-29T23:11:35;8.90;94.80
6186;DHT22;3126;52.738;8.316;2023-05-29T23:16:35;8.80;96.10
6186;DHT22;3126;52.738;8.316;2023-05-29T23:21:36;8.80;96.40
6186;DHT22;3126;52.738;8.316;2023-05-29T23:26:37;8.80;96.50
6186;DHT22;3126;52.738;8.316;2023-05-29T23:31:37;8.70;96.90
6186;DHT22;3126;52.738;8.316;2023-05-29T23:36:39;8.70;97.00
6186;DHT22;3126;52.738;8.316;2023-05-29T23:41:41;8.70;97.20
6186;DHT22;3126;52.738;8.316;2023-05-29T23:46:41;8.60;97.50
6186;DHT22;3126;52.738;8.316;2023-05-29T23:51:42;8.50;97.70
6186;DHT22;3126;52.738;8.316;2023-05-29T23:56:42;8.40;99.00
